createdAt,value
2022-12-25T00:01:07.581Z,5.27
2022-12-25T00:03:34.884Z,4.93
2022-12-25T00:06:02.281Z,5.00
2022-12-25T00:08:29.492Z,5.20
2022-12-25T00:11:03.520Z,5.27
2022-12-25T00:13:30.729Z,5.30
2022-12-25T00:15:57.863Z,5.67
2022-12-25T00:18:25.361Z,4.90
2022-12-25T00:20:59.856Z,5.50
2022-12-25T00:23:27.311Z,4.83
2022-12-25T00:25:54.541Z,4.97
2022-12-25T00:28:22.392Z,4.83
2022-12-25T00:30:49.496Z,4.93
2022-12-25T00:33:16.783Z,4.70
2022-12-25T00:35:43.964Z,5.33
2022-12-25T00:38:11.112Z,5.63
2022-12-25T00:40:44.480Z,6.07
2022-12-25T00:43:11.621Z,6.60
2022-12-25T00:45:38.744Z,7.17
2022-12-25T00:48:06.170Z,6.67
2022-12-25T00:50:33.313Z,7.23
2022-12-25T00:53:00.457Z,7.90
2022-12-25T00:55:27.611Z,7.87
2022-12-25T00:57:54.743Z,8.57
2022-12-25T01:00:24.300Z,9.33
2022-12-25T01:02:51.485Z,8.90
2022-12-25T01:05:18.618Z,8.77
2022-12-25T01:07:45.950Z,8.07
2022-12-25T01:10:22.231Z,8.17
2022-12-25T01:12:49.767Z,7.90
2022-12-25T01:15:17.279Z,8.43
2022-12-25T01:17:44.461Z,8.00
2022-12-25T01:20:12.531Z,8.80
2022-12-25T01:22:39.669Z,8.83
2022-12-25T01:25:07.315Z,7.77
2022-12-25T01:27:34.438Z,7.83
2022-12-25T01:30:01.737Z,7.70
2022-12-25T01:32:28.833Z,7.17
2022-12-25T01:34:56.548Z,6.73
2022-12-25T01:37:24.859Z,5.20
2022-12-25T01:39:52.201Z,4.90
2022-12-25T01:42:20.537Z,5.03
2022-12-25T01:44:47.607Z,5.40
2022-12-25T01:47:16.000Z,5.13
2022-12-25T01:49:45.134Z,4.77
2022-12-25T01:52:17.489Z,4.50
2022-12-25T01:54:49.256Z,4.90
2022-12-25T01:57:18.508Z,5.03
2022-12-25T01:59:45.797Z,4.53
2022-12-25T02:02:13.373Z,3.80
2022-12-25T02:04:47.519Z,4.43
2022-12-25T02:07:16.633Z,4.83
2022-12-25T02:09:44.189Z,4.07
2022-12-25T02:12:15.649Z,4.87
2022-12-25T02:14:42.791Z,4.57
2022-12-25T02:17:09.925Z,4.47
2022-12-25T02:19:52.715Z,5.10
2022-12-25T02:22:34.166Z,5.27
2022-12-25T02:25:14.351Z,6.37
2022-12-25T02:27:44.219Z,6.07
2022-12-25T02:30:12.455Z,5.47
2022-12-25T02:33:19.740Z,5.57
2022-12-25T02:35:48.520Z,5.20
2022-12-25T02:38:35.908Z,6.73
2022-12-25T02:41:07.229Z,6.23
2022-12-25T02:43:55.727Z,7.17
2022-12-25T02:46:42.574Z,5.37
2022-12-25T02:49:30.182Z,4.77
2022-12-25T02:52:20.898Z,5.33
2022-12-25T02:55:09.633Z,5.67
2022-12-25T02:57:57.655Z,6.40
2022-12-25T03:00:43.680Z,6.20
2022-12-25T03:03:30.208Z,5.73
2022-12-25T03:06:19.133Z,6.70
2022-12-25T03:08:48.172Z,7.30
2022-12-25T03:11:33.645Z,6.17
2022-12-25T03:14:23.852Z,5.73
2022-12-25T03:16:53.724Z,7.37
2022-12-25T03:19:41.863Z,6.00
2022-12-25T03:22:33.007Z,5.47
2022-12-25T03:25:19.198Z,5.80
2022-12-25T03:27:47.440Z,5.27
2022-12-25T03:30:33.300Z,7.47
2022-12-25T03:33:36.842Z,7.43
2022-12-25T03:36:13.292Z,6.67
2022-12-25T03:38:50.869Z,5.90
2022-12-25T03:41:42.667Z,5.50
2022-12-25T03:44:42.266Z,5.90
2022-12-25T03:47:34.541Z,6.20
2022-12-25T03:50:28.681Z,5.77
2022-12-25T03:53:15.367Z,7.13
2022-12-25T03:56:01.388Z,7.53
2022-12-25T03:58:47.424Z,6.37
2022-12-25T04:01:33.552Z,6.77
2022-12-25T04:04:19.249Z,6.57
2022-12-25T04:07:05.120Z,7.00
2022-12-25T04:09:51.181Z,7.40
2022-12-25T04:12:37.130Z,7.07
2022-12-25T04:15:23.159Z,9.70
2022-12-25T04:18:11.599Z,9.83
2022-12-25T04:20:57.480Z,8.33
2022-12-25T04:23:43.500Z,8.10
2022-12-25T04:26:29.499Z,8.83
2022-12-25T04:29:15.471Z,9.90
2022-12-25T04:32:12.098Z,10.40
2022-12-25T04:34:58.012Z,10.10
2022-12-25T04:37:25.144Z,10.37
2022-12-25T04:39:52.263Z,10.53
2022-12-25T04:42:19.380Z,10.83
2022-12-25T04:44:46.498Z,11.03
2022-12-25T04:47:13.735Z,9.17
2022-12-25T04:49:40.915Z,10.67
2022-12-25T04:52:08.228Z,9.80
2022-12-25T04:54:35.575Z,10.10
2022-12-25T04:57:02.747Z,9.20
2022-12-25T04:59:29.832Z,10.37
2022-12-25T05:01:57.046Z,9.87
2022-12-25T05:04:24.336Z,9.73
2022-12-25T05:06:51.638Z,9.93
2022-12-25T05:09:18.763Z,9.97
2022-12-25T05:11:45.872Z,10.40
2022-12-25T05:14:12.991Z,9.97
2022-12-25T05:16:40.232Z,10.30
2022-12-25T05:19:07.664Z,9.83
2022-12-25T05:21:34.779Z,9.93
2022-12-25T05:24:01.906Z,10.17
2022-12-25T05:26:29.063Z,9.80
2022-12-25T05:28:57.296Z,9.73
2022-12-25T05:31:24.472Z,10.20
2022-12-25T05:33:52.411Z,9.93
2022-12-25T05:36:19.792Z,9.93
2022-12-25T05:38:47.015Z,9.33
2022-12-25T05:41:14.207Z,9.60
2022-12-25T05:43:41.362Z,9.80
2022-12-25T05:46:09.442Z,10.27
2022-12-25T05:48:37.557Z,9.10
2022-12-25T05:51:08.893Z,8.60
2022-12-25T05:53:36.335Z,8.90
2022-12-25T05:56:04.266Z,8.60
2022-12-25T05:58:32.190Z,8.93
2022-12-25T06:00:59.460Z,9.07
2022-12-25T06:03:26.829Z,8.47
2022-12-25T06:05:54.415Z,9.00
2022-12-25T06:08:21.774Z,9.50
2022-12-25T06:10:48.911Z,8.77
2022-12-25T06:13:16.078Z,9.73
2022-12-25T06:15:43.332Z,9.23
2022-12-25T06:18:10.553Z,8.93
2022-12-25T06:20:41.038Z,9.03
2022-12-25T06:23:08.194Z,8.87
2022-12-25T06:25:35.460Z,9.53
2022-12-25T06:28:02.598Z,8.33
2022-12-25T06:30:29.762Z,9.53
2022-12-25T06:32:56.949Z,9.23
2022-12-25T06:35:24.048Z,8.43
2022-12-25T06:37:51.225Z,8.40
2022-12-25T06:40:18.390Z,8.40
2022-12-25T06:42:45.537Z,9.60
2022-12-25T06:45:12.675Z,9.40
2022-12-25T06:47:39.819Z,9.23
2022-12-25T06:50:07.328Z,9.50
2022-12-25T06:52:34.441Z,9.57
2022-12-25T06:55:01.565Z,9.90
2022-12-25T06:57:28.745Z,8.97
2022-12-25T06:59:56.005Z,10.00
2022-12-25T07:02:24.338Z,9.63
2022-12-25T07:04:51.895Z,10.10
2022-12-25T07:07:19.377Z,9.53
2022-12-25T07:09:46.488Z,9.57
2022-12-25T07:12:21.406Z,9.90
2022-12-25T07:14:50.092Z,9.93
2022-12-25T07:17:17.964Z,9.47
2022-12-25T07:19:45.656Z,9.63
2022-12-25T07:22:12.996Z,9.43
2022-12-25T07:24:40.176Z,10.57
2022-12-25T07:27:08.308Z,10.67
2022-12-25T07:29:35.595Z,10.23
2022-12-25T07:32:02.838Z,10.53
2022-12-25T07:34:30.019Z,10.33
2022-12-25T07:36:57.134Z,9.83
2022-12-25T07:39:24.241Z,11.03
2022-12-25T07:41:51.642Z,10.83
2022-12-25T07:44:18.802Z,9.97
2022-12-25T07:46:46.155Z,10.77
2022-12-25T07:49:13.570Z,11.30
2022-12-25T07:51:40.767Z,11.60
2022-12-25T07:54:08.116Z,11.00
2022-12-25T07:56:35.409Z,11.77
2022-12-25T07:59:02.560Z,10.07
2022-12-25T08:01:30.446Z,9.87
2022-12-25T08:03:59.035Z,10.10
2022-12-25T08:06:29.756Z,9.63
2022-12-25T08:08:57.992Z,9.20
2022-12-25T08:11:25.158Z,9.63
2022-12-25T08:13:52.326Z,10.20
2022-12-25T08:16:19.466Z,11.03
2022-12-25T08:18:46.741Z,9.50
2022-12-25T08:21:14.665Z,8.33
2022-12-25T08:23:45.665Z,9.30
2022-12-25T08:26:17.214Z,8.80
2022-12-25T08:28:44.374Z,8.43
2022-12-25T08:31:16.321Z,9.53
2022-12-25T08:33:43.797Z,9.40
2022-12-25T08:36:12.033Z,10.13
2022-12-25T08:38:39.538Z,9.00
2022-12-25T08:41:06.683Z,8.83
2022-12-25T08:43:33.833Z,7.67
2022-12-25T08:46:01.069Z,7.70
2022-12-25T08:48:28.360Z,9.23
2022-12-25T08:50:55.641Z,7.97
2022-12-25T08:53:22.787Z,7.47
2022-12-25T08:55:50.267Z,7.20
2022-12-25T08:58:17.724Z,7.10
2022-12-25T09:00:44.837Z,6.80
2022-12-25T09:03:12.062Z,7.07
2022-12-25T09:05:39.263Z,6.67
2022-12-25T09:08:06.395Z,6.47
2022-12-25T09:10:36.723Z,7.80
2022-12-25T09:13:04.104Z,8.80
2022-12-25T09:15:31.567Z,8.97
2022-12-25T09:17:58.728Z,9.67
2022-12-25T09:20:25.848Z,9.97
2022-12-25T09:22:52.964Z,10.17
2022-12-25T09:25:20.108Z,8.27
2022-12-25T09:27:47.307Z,8.37
2022-12-25T09:30:14.486Z,7.33
2022-12-25T09:32:41.615Z,7.40
2022-12-25T09:35:09.264Z,6.50
2022-12-25T09:37:36.422Z,7.40
2022-12-25T09:40:03.851Z,7.03
2022-12-25T09:42:34.393Z,7.50
2022-12-25T09:45:03.632Z,6.97
2022-12-25T09:47:32.154Z,6.23
2022-12-25T09:49:59.225Z,6.40
2022-12-25T09:52:35.347Z,7.00
2022-12-25T09:55:18.104Z,7.00
2022-12-25T09:57:50.229Z,7.20
2022-12-25T10:00:19.017Z,7.30
2022-12-25T10:02:58.675Z,6.53
2022-12-25T10:05:44.053Z,7.37
2022-12-25T10:08:29.538Z,6.27
2022-12-25T10:10:59.701Z,6.90
2022-12-25T10:14:05.889Z,6.60
2022-12-25T10:16:51.044Z,6.80
2022-12-25T10:19:33.276Z,6.87
2022-12-25T10:22:02.425Z,7.43
2022-12-25T10:24:59.052Z,7.17
2022-12-25T10:27:31.044Z,7.50
2022-12-25T10:29:59.362Z,7.37
2022-12-25T10:32:26.553Z,7.60
2022-12-25T10:34:53.823Z,8.00
2022-12-25T10:37:21.071Z,7.73
2022-12-25T10:39:48.195Z,8.00
2022-12-25T10:42:29.720Z,7.33
2022-12-25T10:44:57.970Z,7.90
2022-12-25T10:47:33.561Z,7.47
2022-12-25T10:50:01.949Z,7.27
2022-12-25T10:52:29.862Z,7.77
2022-12-25T10:54:57.081Z,8.00
2022-12-25T10:57:25.728Z,9.13
2022-12-25T10:59:57.080Z,8.30
2022-12-25T11:02:28.880Z,7.60
2022-12-25T11:05:06.806Z,8.77
2022-12-25T11:07:46.631Z,9.37
2022-12-25T11:10:21.398Z,9.23
2022-12-25T11:12:48.561Z,8.77
2022-12-25T11:15:30.979Z,8.57
2022-12-25T11:17:58.358Z,9.20
2022-12-25T11:20:25.901Z,9.40
2022-12-25T11:22:53.116Z,9.40
2022-12-25T11:25:27.060Z,11.97
2022-12-25T11:27:58.134Z,8.70
2022-12-25T11:30:25.239Z,8.10
2022-12-25T11:32:56.239Z,8.40
2022-12-25T11:35:26.868Z,8.07
2022-12-25T11:37:54.407Z,9.00
2022-12-25T11:40:24.840Z,8.27
2022-12-25T11:42:53.600Z,8.03
2022-12-25T11:45:24.764Z,8.00
2022-12-25T11:47:53.726Z,8.10
2022-12-25T11:50:27.774Z,8.20
2022-12-25T11:52:55.897Z,7.60
2022-12-25T11:55:30.229Z,7.33
2022-12-25T11:57:59.916Z,7.60
2022-12-25T12:00:29.668Z,8.00
2022-12-25T12:03:04.064Z,7.17
2022-12-25T12:05:35.786Z,7.77
2022-12-25T12:08:04.384Z,7.60
2022-12-25T12:10:49.946Z,8.20
2022-12-25T12:13:32.382Z,7.47
2022-12-25T12:15:59.625Z,8.10
2022-12-25T12:18:26.800Z,8.70
2022-12-25T12:21:12.469Z,9.00
2022-12-25T12:23:52.202Z,8.87
2022-12-25T12:26:21.097Z,9.63
2022-12-25T12:28:48.889Z,9.17
2022-12-25T12:31:16.514Z,13.80
2022-12-25T12:33:49.648Z,12.17
2022-12-25T12:36:17.127Z,10.87
2022-12-25T12:38:44.833Z,10.00
2022-12-25T12:41:13.870Z,9.50
2022-12-25T12:43:42.530Z,9.00
2022-12-25T12:46:30.130Z,9.60
2022-12-25T12:49:12.159Z,9.30
2022-12-25T12:51:39.337Z,9.37
2022-12-25T12:54:21.586Z,7.80
2022-12-25T12:57:02.439Z,6.97
2022-12-25T12:59:36.471Z,6.80
2022-12-25T13:02:18.211Z,6.00
2022-12-25T13:04:57.697Z,6.33
2022-12-25T13:07:33.904Z,11.00
2022-12-25T13:10:01.076Z,58.67
2022-12-25T13:12:28.387Z,76.27
2022-12-25T13:14:55.694Z,59.47
2022-12-25T13:17:25.064Z,29.30
2022-12-25T13:19:59.605Z,30.03
2022-12-25T13:22:36.875Z,5.50
2022-12-25T13:25:06.231Z,6.20
2022-12-25T13:27:34.156Z,7.07
2022-12-25T13:30:11.919Z,5.20
2022-12-25T13:32:39.092Z,5.40
2022-12-25T13:35:12.407Z,6.00
2022-12-25T13:37:39.571Z,4.93
2022-12-25T13:40:08.041Z,5.47
2022-12-25T13:42:39.923Z,5.10
2022-12-25T13:45:07.236Z,5.00
2022-12-25T13:47:35.239Z,5.10
2022-12-25T13:50:14.508Z,4.43
2022-12-25T13:52:41.637Z,4.80
2022-12-25T13:55:13.932Z,4.50
2022-12-25T13:57:45.675Z,5.60
2022-12-25T14:00:28.518Z,5.70
2022-12-25T14:02:55.994Z,5.40
2022-12-25T14:05:23.214Z,5.37
2022-12-25T14:07:53.961Z,8.00
2022-12-25T14:10:25.814Z,7.13
2022-12-25T14:12:54.324Z,7.10
2022-12-25T14:15:23.019Z,6.70
2022-12-25T14:17:53.396Z,5.57
2022-12-25T14:20:27.829Z,5.43
2022-12-25T14:22:56.407Z,5.27
2022-12-25T14:25:24.802Z,5.67
2022-12-25T14:27:52.792Z,5.50
2022-12-25T14:30:20.172Z,5.90
2022-12-25T14:32:50.909Z,6.30
2022-12-25T14:35:23.303Z,6.00
2022-12-25T14:37:54.076Z,6.27
2022-12-25T14:40:31.132Z,5.90
2022-12-25T14:43:05.442Z,7.03
2022-12-25T14:45:38.764Z,7.00
2022-12-25T14:48:24.597Z,7.00
2022-12-25T14:51:03.996Z,6.43
2022-12-25T14:53:39.642Z,6.20
2022-12-25T14:56:07.626Z,5.97
2022-12-25T14:58:37.961Z,6.07
2022-12-25T15:01:05.981Z,5.93
2022-12-25T15:03:35.828Z,6.47
2022-12-25T15:06:07.270Z,6.93
2022-12-25T15:08:35.528Z,6.53
2022-12-25T15:11:03.586Z,6.30
2022-12-25T15:13:31.856Z,6.03
2022-12-25T15:16:10.269Z,5.87
2022-12-25T15:18:39.266Z,5.80
2022-12-25T15:21:06.964Z,6.40
2022-12-25T15:23:34.135Z,6.33
2022-12-25T15:26:01.271Z,7.13
2022-12-25T15:28:28.427Z,7.43
2022-12-25T15:30:55.786Z,8.67
2022-12-25T15:33:22.962Z,7.00
2022-12-25T15:35:50.156Z,7.97
2022-12-25T15:38:17.320Z,7.70
2022-12-25T15:40:44.480Z,7.80
2022-12-25T15:43:39.332Z,7.67
2022-12-25T15:46:02.048Z,8.50
2022-12-25T15:48:29.184Z,8.23
2022-12-25T15:50:56.339Z,8.00
2022-12-25T15:53:24.122Z,8.30
2022-12-25T15:55:51.265Z,9.03
2022-12-25T15:58:18.365Z,8.73
2022-12-25T16:00:45.516Z,8.87
2022-12-25T16:03:12.767Z,8.70
2022-12-25T16:05:40.001Z,9.20
2022-12-25T16:08:07.189Z,8.57
2022-12-25T16:10:38.680Z,9.70
2022-12-25T16:13:06.358Z,9.97
2022-12-25T16:15:33.584Z,9.93
2022-12-25T16:18:00.752Z,8.87
2022-12-25T16:20:27.976Z,8.60
2022-12-25T16:22:55.137Z,8.13
2022-12-25T16:25:22.246Z,9.30
2022-12-25T16:27:49.396Z,10.37
2022-12-25T16:30:17.589Z,8.67
2022-12-25T16:32:45.783Z,9.97
2022-12-25T16:35:13.091Z,9.87
2022-12-25T16:37:40.308Z,9.83
2022-12-25T16:40:10.857Z,11.07
2022-12-25T16:42:38.497Z,14.97
2022-12-25T16:45:05.888Z,15.70
2022-12-25T16:47:33.712Z,16.30
2022-12-25T16:50:00.957Z,13.93
2022-12-25T16:52:28.111Z,11.17
2022-12-25T16:54:55.192Z,13.23
2022-12-25T16:57:22.285Z,13.23
2022-12-25T16:59:49.559Z,10.97
2022-12-25T17:02:18.162Z,12.80
2022-12-25T17:04:45.788Z,12.10
2022-12-25T17:07:13.765Z,12.77
2022-12-25T17:09:44.367Z,12.37
2022-12-25T17:12:11.875Z,13.57
2022-12-25T17:14:38.985Z,14.10
2022-12-25T17:17:06.177Z,15.80
2022-12-25T17:19:33.371Z,13.37
2022-12-25T17:22:00.574Z,12.77
2022-12-25T17:24:28.819Z,13.83
2022-12-25T17:26:56.247Z,13.03
2022-12-25T17:29:25.050Z,12.17
2022-12-25T17:31:52.490Z,11.40
2022-12-25T17:34:19.982Z,11.97
2022-12-25T17:36:47.201Z,11.20
2022-12-25T17:39:14.336Z,11.90
2022-12-25T17:41:41.485Z,14.57
2022-12-25T17:44:09.571Z,14.57
2022-12-25T17:46:38.056Z,15.27
2022-12-25T17:49:05.774Z,16.27
2022-12-25T17:51:32.923Z,15.40
2022-12-25T17:54:04.928Z,14.67
2022-12-25T17:56:32.616Z,14.63
2022-12-25T17:59:00.915Z,15.13
2022-12-25T18:01:29.329Z,14.27
2022-12-25T18:03:56.950Z,14.97
2022-12-25T18:06:25.130Z,13.87
2022-12-25T18:08:52.604Z,14.80
2022-12-25T18:11:22.180Z,16.07
2022-12-25T18:13:52.090Z,17.53
2022-12-25T18:16:20.615Z,17.73
2022-12-25T18:18:51.884Z,17.60
2022-12-25T18:21:19.801Z,23.10
2022-12-25T18:23:46.984Z,19.30
2022-12-25T18:26:14.286Z,18.73
2022-12-25T18:28:42.700Z,17.70
2022-12-25T18:31:10.933Z,17.03
2022-12-25T18:33:38.285Z,18.27
2022-12-25T18:36:05.542Z,18.77
2022-12-25T18:38:32.932Z,19.30
2022-12-25T18:41:00.114Z,20.40
2022-12-25T18:43:52.779Z,17.60
2022-12-25T18:46:15.467Z,22.20
2022-12-25T18:48:42.669Z,19.10
2022-12-25T18:51:11.346Z,19.90
2022-12-25T18:53:38.765Z,19.07
2022-12-25T18:56:13.555Z,18.90
2022-12-25T18:58:41.528Z,20.37
2022-12-25T19:01:12.664Z,20.77
2022-12-25T19:03:40.069Z,17.87
2022-12-25T19:06:07.365Z,22.70
2022-12-25T19:08:34.464Z,19.27
2022-12-25T19:11:01.700Z,20.47
2022-12-25T19:13:28.810Z,19.23
2022-12-25T19:15:58.827Z,21.03
2022-12-25T19:18:26.115Z,21.63
2022-12-25T19:20:53.223Z,19.40
2022-12-25T19:23:20.360Z,20.33
2022-12-25T19:25:49.387Z,19.33
2022-12-25T19:28:17.792Z,19.03
2022-12-25T19:30:44.977Z,20.13
2022-12-25T19:33:17.450Z,19.33
2022-12-25T19:35:46.772Z,26.93
2022-12-25T19:38:13.904Z,27.80
2022-12-25T19:40:41.210Z,22.00
2022-12-25T19:43:08.345Z,30.37
2022-12-25T19:45:35.504Z,51.80
2022-12-25T19:48:02.774Z,33.23
2022-12-25T19:50:32.167Z,31.87
2022-12-25T19:53:00.394Z,29.07
2022-12-25T19:55:27.524Z,30.33
2022-12-25T19:57:55.338Z,28.33
2022-12-25T20:00:22.495Z,29.07
2022-12-25T20:02:49.739Z,29.17
2022-12-25T20:05:16.937Z,35.43
2022-12-25T20:07:44.126Z,40.30
2022-12-25T20:10:11.443Z,53.53
2022-12-25T20:12:38.618Z,58.50
2022-12-25T20:15:05.881Z,65.90
2022-12-25T20:17:33.005Z,39.80
2022-12-25T20:20:00.134Z,37.73
2022-12-25T20:22:27.291Z,35.00
2022-12-25T20:24:54.412Z,32.87
2022-12-25T20:27:21.543Z,30.40
2022-12-25T20:29:48.685Z,28.20
2022-12-25T20:32:15.905Z,27.70
2022-12-25T20:34:43.100Z,33.73
2022-12-25T20:37:10.236Z,26.80
2022-12-25T20:39:37.381Z,26.57
2022-12-25T20:42:04.555Z,25.70
2022-12-25T20:44:31.672Z,24.27
2022-12-25T20:47:01.025Z,25.90
2022-12-25T20:49:32.379Z,25.03
2022-12-25T20:52:04.917Z,27.90
2022-12-25T20:54:32.826Z,21.07
2022-12-25T20:57:00.046Z,21.40
2022-12-25T20:59:29.776Z,29.67
2022-12-25T21:02:00.870Z,25.70
2022-12-25T21:04:28.162Z,22.13
2022-12-25T21:06:55.262Z,19.43
2022-12-25T21:09:22.415Z,14.83
2022-12-25T21:11:49.522Z,13.13
2022-12-25T21:14:17.254Z,12.90
2022-12-25T21:16:44.793Z,11.53
2022-12-25T21:19:14.775Z,10.40
2022-12-25T21:21:43.518Z,8.60
2022-12-25T21:24:11.116Z,8.70
2022-12-25T21:26:41.767Z,8.60
2022-12-25T21:29:11.603Z,7.87
2022-12-25T21:31:57.671Z,7.57
2022-12-25T21:34:24.864Z,6.37
2022-12-25T21:36:52.000Z,6.73
2022-12-25T21:39:19.116Z,6.33
2022-12-25T21:41:46.255Z,5.73
2022-12-25T21:44:13.397Z,6.53
2022-12-25T21:46:40.591Z,6.93
2022-12-25T21:49:07.855Z,5.80
2022-12-25T21:51:53.809Z,6.00
2022-12-25T21:54:22.094Z,4.90
2022-12-25T21:56:49.750Z,5.30
2022-12-25T21:59:21.384Z,5.27
2022-12-25T22:01:49.186Z,5.00
2022-12-25T22:04:17.055Z,4.47
2022-12-25T22:07:02.702Z,5.07
2022-12-25T22:09:30.016Z,5.40
2022-12-25T22:12:15.768Z,5.40
2022-12-25T22:14:55.277Z,5.30
2022-12-25T22:17:43.201Z,4.80
2022-12-25T22:20:11.669Z,3.93
2022-12-25T22:22:38.832Z,4.30
2022-12-25T22:25:07.063Z,3.90
2022-12-25T22:27:35.219Z,4.10
2022-12-25T22:30:02.541Z,4.00
2022-12-25T22:32:29.788Z,3.60
2022-12-25T22:34:56.933Z,4.00
2022-12-25T22:37:24.456Z,3.67
2022-12-25T22:39:51.603Z,3.50
2022-12-25T22:42:19.252Z,3.60
2022-12-25T22:44:47.938Z,3.37
2022-12-25T22:47:15.385Z,3.27
2022-12-25T22:49:42.533Z,3.30
2022-12-25T22:52:10.424Z,3.93
2022-12-25T22:54:37.624Z,3.87
2022-12-25T22:57:05.263Z,3.40
2022-12-25T22:59:35.474Z,3.17
2022-12-25T23:02:02.732Z,3.30
2022-12-25T23:04:29.942Z,3.10
2022-12-25T23:06:57.240Z,3.00
2022-12-25T23:09:27.889Z,3.37
2022-12-25T23:11:58.716Z,3.30
2022-12-25T23:14:39.072Z,3.13
2022-12-25T23:17:30.613Z,3.07
2022-12-25T23:20:17.472Z,3.10
2022-12-25T23:23:03.460Z,2.90
2022-12-25T23:25:49.288Z,2.90
2022-12-25T23:28:36.408Z,2.80
2022-12-25T23:31:03.569Z,2.50
2022-12-25T23:33:30.824Z,2.87
2022-12-25T23:35:57.967Z,3.20
2022-12-25T23:38:25.262Z,2.93
2022-12-25T23:40:52.734Z,2.83
2022-12-25T23:43:20.132Z,2.80
2022-12-25T23:45:47.249Z,3.10
2022-12-25T23:48:14.387Z,2.73
2022-12-25T23:50:41.564Z,2.53
2022-12-25T23:53:08.656Z,3.20
2022-12-25T23:55:36.381Z,3.13
2022-12-25T23:58:03.492Z,3.10
